Gooberville, Louisiana
Current Conditions -  °F | °C
As of 12:53 AM on Saturday 27 Dec 2014 (Local Time) from KAEX Reporting Station
Overcast Overcast  
Wind Chill: 59°   Ceiling: 900
Heat Index: 59°   Visibility: 10mi
Dew Point: 56°   Wind: 9mph
Humidity: 90%   Direction: 120°ESE
Pressure: 30.07"   Gusts: NA
Location:  31.4254°N, 92.7765°W
Report Text: KAEX 270653Z 12008KT 10SM OVC009 15/13 A3007 RMK AO2 SLP187 T01500133
Loading
Personal Weather Stations






























Interactive Weather Map New forecast layout! Learn more

10-Day Weather Forecast

Advertisements
Track Severe Weather on mobile